Time;durP1;ratioP1;P1;durP2;ratioP2;P2;SDS_P1;SDS_P2;PMS_P1;PMS_P2;Temp;Humidity;BMP_temperature;BMP_pressure;BME280_temperature;BME280_humidity;BME280_pressure;Samples;Min_cycle;Max_cycle;Signal;HPM_P1;HPM_P2
2023/04/15 00:05:21;;;;;;;24.87;16.83;;;5.10;99.90;;;;;;2613499;54;20163;-77
2023/04/15 00:11:09;;;;;;;17.57;15.87;;;5.20;99.90;;;;;;2614063;54;20127;-75
2023/04/15 00:16:57;;;;;;;17.97;15.77;;;5.00;99.90;;;;;;2612602;54;20378;-76
2023/04/15 00:22:45;;;;;;;18.33;15.27;;;5.00;99.90;;;;;;2613047;54;20355;-76
2023/04/15 00:32:38;;;;;;;18.03;16.13;;;4.80;99.90;;;;;;2613766;54;20346;-76
2023/04/15 00:38:26;;;;;;;16.83;15.10;;;4.70;99.90;;;;;;2612898;54;20391;-75
2023/04/15 00:44:14;;;;;;;17.20;14.70;;;4.90;99.90;;;;;;2612957;46;20408;-76
2023/04/15 00:50:02;;;;;;;17.87;16.10;;;4.70;99.90;;;;;;2610695;54;20665;-76
2023/04/15 00:55:50;;;;;;;18.47;16.13;;;4.70;99.90;;;;;;2612893;54;20398;-76
2023/04/15 01:01:38;;;;;;;17.87;14.90;;;4.60;99.90;;;;;;2613742;54;20149;-76
2023/04/15 01:07:25;;;;;;;15.77;14.17;;;4.50;99.90;;;;;;2613502;54;20154;-75
2023/04/15 01:13:13;;;;;;;16.23;14.73;;;4.50;99.90;;;;;;2612683;54;20167;-76
2023/04/15 01:19:01;;;;;;;16.70;14.27;;;4.30;99.90;;;;;;2612775;54;20151;-76
2023/04/15 01:28:08;;;;;;;17.27;15.47;;;4.20;99.90;;;;;;2611860;54;20387;-75
2023/04/15 01:33:56;;;;;;;20.17;18.03;;;4.10;99.90;;;;;;2613669;54;20369;-76
2023/04/15 01:39:43;;;;;;;18.70;16.90;;;4.30;99.90;;;;;;2612570;54;20154;-76
2023/04/15 01:45:31;;;;;;;18.23;16.37;;;4.10;99.90;;;;;;2612020;39;20812;-76
2023/04/15 01:51:19;;;;;;;18.17;16.27;;;4.10;99.90;;;;;;2613270;54;20267;-75
2023/04/15 01:57:07;;;;;;;23.13;17.37;;;4.00;99.90;;;;;;2613236;39;20207;-76
2023/04/15 02:02:54;;;;;;;18.90;16.90;;;4.00;99.90;;;;;;2613721;39;20532;-76
2023/04/15 02:08:42;;;;;;;22.93;16.87;;;4.00;99.90;;;;;;2614282;54;20134;-75
2023/04/15 02:14:30;;;;;;;21.43;16.90;;;3.80;99.90;;;;;;2614396;54;20150;-76
2023/04/15 02:20:20;;;;;;;22.67;17.63;;;3.70;99.90;;;;;;2612514;54;21022;-75
2023/04/15 02:26:07;;;;;;;19.73;17.50;;;3.80;99.90;;;;;;2615142;39;20749;-68
2023/04/15 02:29:22;;;;;;;22.83;17.70;;;3.90;99.90;;;;;;2613473;54;20419;-68
2023/04/15 02:31:48;;;;;;;22.57;19.03;;;3.90;99.90;;;;;;2614565;54;20452;-68
2023/04/15 02:37:42;;;;;;;24.30;17.90;;;4.10;99.90;;;;;;2613825;54;20370;-67
2023/04/15 02:43:30;;;;;;;19.43;17.27;;;4.00;99.90;;;;;;2614565;39;20800;-68
2023/04/15 02:49:18;;;;;;;22.63;17.70;;;4.30;99.90;;;;;;2613895;54;20398;-68
2023/04/15 02:55:05;;;;;;;20.17;17.40;;;4.20;99.90;;;;;;2613616;54;20147;-67
2023/04/15 03:00:53;;;;;;;22.77;19.70;;;4.00;99.90;;;;;;2613571;54;20439;-76
2023/04/15 03:06:41;;;;;;;19.73;17.70;;;3.90;99.90;;;;;;2613394;39;20815;-76
2023/04/15 03:12:29;;;;;;;21.30;17.33;;;4.10;99.90;;;;;;2613956;54;20161;-75
2023/04/15 03:18:16;;;;;;;20.53;18.43;;;4.00;99.90;;;;;;2613204;54;20411;-75
2023/04/15 03:24:05;;;;;;;19.90;17.70;;;4.00;99.90;;;;;;2613064;54;20134;-76
2023/04/15 03:33:55;;;;;;;20.27;17.87;;;3.90;99.90;;;;;;2613495;54;20375;-75
2023/04/15 03:39:43;;;;;;;21.37;18.67;;;4.00;99.90;;;;;;2612484;54;20362;-75
2023/04/15 03:45:30;;;;;;;27.73;19.50;;;4.10;99.90;;;;;;2613398;54;20199;-75
2023/04/15 03:51:18;;;;;;;22.30;18.50;;;4.10;99.90;;;;;;2613858;54;20991;-75
2023/04/15 03:57:05;;;;;;;22.07;19.10;;;4.30;99.90;;;;;;2614347;54;20242;-75
2023/04/15 04:02:53;;;;;;;21.70;17.97;;;4.40;99.90;;;;;;2613466;54;20131;-75
2023/04/15 04:08:41;;;;;;;24.10;19.03;;;4.20;99.90;;;;;;2614201;54;20748;-76
2023/04/15 04:14:29;;;;;;;22.80;20.40;;;3.90;99.90;;;;;;2614151;54;20146;-75
2023/04/15 04:20:16;;;;;;;20.07;18.00;;;3.70;99.90;;;;;;2613405;54;20238;-75
2023/04/15 04:26:05;;;;;;;24.07;18.03;;;3.70;99.90;;;;;;2613426;54;20129;-76
2023/04/15 04:29:22;;;;;;;24.43;19.23;;;3.70;99.90;;;;;;2613716;54;20432;-75
2023/04/15 04:31:48;;;;;;;35.43;25.20;;;3.70;99.90;;;;;;2612918;54;20408;-76
2023/04/15 04:37:35;;;;;;;29.90;18.37;;;3.50;99.90;;;;;;2613678;54;20395;-75
2023/04/15 04:43:23;;;;;;;21.90;18.40;;;3.30;99.90;;;;;;2613503;54;20267;-76
2023/04/15 04:49:11;;;;;;;24.10;18.60;;;3.10;99.90;;;;;;2613297;54;20150;-76
2023/04/15 04:54:59;;;;;;;21.20;16.70;;;3.10;99.90;;;;;;2612475;54;20621;-76
2023/04/15 05:00:46;;;;;;;20.40;18.10;;;3.10;99.90;;;;;;2612694;54;20154;-76
2023/04/15 05:06:35;;;;;;;23.87;19.07;;;3.10;99.90;;;;;;2613977;54;20158;-75
2023/04/15 05:12:23;;;;;;;22.27;17.80;;;3.20;99.90;;;;;;2614466;54;20394;-76
2023/04/15 05:18:11;;;;;;;23.07;18.53;;;3.30;99.90;;;;;;2611506;54;20134;-77
2023/04/15 05:23:59;;;;;;;24.57;18.67;;;3.60;99.90;;;;;;2611135;54;20158;-74
2023/04/15 05:33:55;;;;;;;22.27;19.20;;;3.80;99.90;;;;;;2613749;54;20391;-74
2023/04/15 05:39:43;;;;;;;27.43;18.63;;;4.00;99.90;;;;;;2614157;54;20379;-73
2023/04/15 05:45:30;;;;;;;30.20;21.27;;;4.30;99.90;;;;;;2615692;54;20411;-73
2023/04/15 05:51:18;;;;;;;31.50;22.33;;;4.70;99.90;;;;;;2614837;54;20157;-73
2023/04/15 05:57:07;;;;;;;27.23;21.97;;;5.10;99.90;;;;;;2614985;39;20741;-73
2023/04/15 06:02:56;;;;;;;26.17;21.50;;;5.40;99.90;;;;;;2613549;54;20366;-74
2023/04/15 06:08:44;;;;;;;29.73;22.93;;;5.70;99.90;;;;;;2611988;54;20499;-73
2023/04/15 06:14:32;;;;;;;26.13;22.27;;;6.00;99.90;;;;;;2611701;54;20134;-73
2023/04/15 06:20:19;;;;;;;24.60;22.10;;;6.40;99.90;;;;;;2612788;31;20715;-73
2023/04/15 06:26:07;;;;;;;27.83;22.77;;;6.70;99.90;;;;;;2609973;54;20266;-73
2023/04/15 06:29:22;;;;;;;33.47;23.33;;;6.80;99.90;;;;;;2610063;54;20435;-73
2023/04/15 06:31:48;;;;;;;26.63;22.43;;;7.00;99.90;;;;;;2612202;39;20362;-74
2023/04/15 06:37:35;;;;;;;25.23;21.93;;;7.20;99.90;;;;;;2613085;54;20246;-73
2023/04/15 06:43:23;;;;;;;20.80;18.60;;;7.60;99.90;;;;;;2609342;54;20224;-78
2023/04/15 06:49:11;;;;;;;22.33;18.57;;;7.40;99.90;;;;;;2613702;54;20138;-75
2023/04/15 06:54:59;;;;;;;22.00;19.87;;;7.40;99.90;;;;;;2614272;54;20134;-74
2023/04/15 07:00:47;;;;;;;19.10;17.10;;;7.60;99.90;;;;;;2614257;39;20879;-74
2023/04/15 07:06:35;;;;;;;20.57;18.67;;;7.80;99.90;;;;;;2614596;54;20431;-74
2023/04/15 07:09:38;;;;;;;26.97;22.10;;;8.00;99.90;;;;;;2613570;46;20416;-73
2023/04/15 07:12:04;;;;;;;22.30;19.90;;;8.30;99.90;;;;;;2613186;39;20568;-74
2023/04/15 07:17:52;;;;;;;21.10;19.20;;;8.70;99.90;;;;;;2612408;39;20605;-74
2023/04/15 07:23:41;;;;;;;19.63;17.93;;;9.10;99.90;;;;;;2610272;54;20146;-75
2023/04/15 07:36:12;;;;;;;22.47;20.33;;;9.10;99.90;;;;;;2613550;39;20754;-73
2023/04/15 07:42:01;;;;;;;19.53;17.93;;;9.40;99.90;;;;;;2612563;54;20137;-75
2023/04/15 07:47:50;;;;;;;20.83;19.03;;;9.40;99.90;;;;;;2613233;54;20854;-74
2023/04/15 07:53:37;;;;;;;19.33;17.63;;;9.40;99.90;;;;;;2612999;54;21007;-74
2023/04/15 07:59:26;;;;;;;18.90;17.10;;;9.80;99.90;;;;;;2612875;54;20202;-74
2023/04/15 08:05:20;;;;;;;19.50;17.80;;;9.90;99.90;;;;;;2613181;54;20945;-74
2023/04/15 08:11:08;;;;;;;18.33;16.73;;;10.00;99.90;;;;;;2612705;54;20438;-74
2023/04/15 08:16:56;;;;;;;19.20;17.70;;;10.40;99.90;;;;;;2612985;54;20452;-74
2023/04/15 08:22:44;;;;;;;18.00;16.60;;;10.90;99.90;;;;;;2613370;54;20137;-74
2023/04/15 08:28:33;;;;;;;16.80;15.50;;;11.00;99.90;;;;;;2613547;54;20267;-73
2023/04/15 08:34:21;;;;;;;17.47;16.27;;;11.90;98.80;;;;;;2612253;54;20434;-74
2023/04/15 08:37:39;;;;;;;16.10;14.80;;;11.50;93.90;;;;;;2613244;54;20957;-73
2023/04/15 08:43:32;;;;;;;15.63;14.63;;;12.30;88.20;;;;;;2610675;54;20465;-74
2023/04/15 08:49:21;;;;;;;15.47;14.67;;;12.50;68.80;;;;;;2612202;54;20407;-75
2023/04/15 08:55:10;;;;;;;17.40;16.10;;;12.20;63.70;;;;;;2613840;54;20395;-74
2023/04/15 09:00:58;;;;;;;16.40;15.27;;;11.40;73.80;;;;;;2613846;54;20450;-73
2023/04/15 09:06:46;;;;;;;16.73;15.63;;;11.60;86.80;;;;;;2614401;54;20973;-74
2023/04/15 09:12:35;;;;;;;15.20;14.13;;;12.20;82.60;;;;;;2609429;54;20134;-73
2023/04/15 09:18:28;;;;;;;15.47;14.47;;;11.90;75.80;;;;;;2609352;54;20957;-74
2023/04/15 09:24:16;;;;;;;16.10;15.10;;;11.90;82.40;;;;;;2609847;54;20434;-73
2023/04/15 09:30:08;;;;;;;13.80;13.10;;;11.30;90.60;;;;;;2610438;54;20162;-75
2023/04/15 09:33:09;;;;;;;14.13;13.33;;;11.50;93.30;;;;;;2610539;47;20424;-74
2023/04/15 09:35:38;;;;;;;14.23;13.53;;;11.50;91.10;;;;;;2611206;47;20435;-74
2023/04/15 09:41:26;;;;;;;14.63;13.53;;;11.30;94.20;;;;;;2611692;54;20391;-75
2023/04/15 09:47:30;;;;;;;13.60;12.77;;;11.10;98.70;;;;;;2609821;54;20554;-74
2023/04/15 09:53:23;;;;;;;14.70;13.90;;;11.30;99.90;;;;;;2609354;54;20423;-73
2023/04/15 09:59:10;;;;;;;14.83;13.83;;;11.00;99.90;;;;;;2609262;54;20427;-73
2023/04/15 10:04:59;;;;;;;14.17;13.37;;;11.20;99.90;;;;;;2610983;54;20653;-74
2023/04/15 10:10:47;;;;;;;14.93;13.83;;;11.30;99.90;;;;;;2611830;54;20398;-73
2023/04/15 10:16:41;;;;;;;13.33;12.53;;;11.40;99.90;;;;;;2611998;47;20865;-72
2023/04/15 10:22:30;;;;;;;15.40;14.40;;;11.10;99.90;;;;;;2612770;54;20503;-74
2023/04/15 10:28:21;;;;;;;14.37;13.37;;;11.00;99.90;;;;;;2613841;54;20399;-73
2023/04/15 10:37:40;;;;;;;13.67;12.80;;;11.40;99.90;;;;;;2613763;54;20399;-74
2023/04/15 10:43:28;;;;;;;13.23;12.40;;;11.50;99.90;;;;;;2613953;54;20389;-73
2023/04/15 10:55:34;;;;;;;13.60;12.70;;;11.20;99.90;;;;;;2614666;39;20798;-73
2023/04/15 11:01:22;;;;;;;15.23;14.13;;;11.20;99.90;;;;;;2613515;54;20438;-74
2023/04/15 11:07:12;;;;;;;16.30;14.80;;;11.30;99.90;;;;;;2613048;54;20162;-72
2023/04/15 11:13:03;;;;;;;15.73;14.77;;;11.10;99.90;;;;;;2610200;54;21215;-76
2023/04/15 11:18:55;;;;;;;14.20;13.20;;;11.20;99.90;;;;;;2612165;54;20395;-76
2023/04/15 11:24:49;;;;;;;15.13;14.13;;;10.90;99.90;;;;;;2613689;39;20812;-78
2023/04/15 11:30:38;;;;;;;15.43;14.17;;;10.80;99.90;;;;;;2614091;54;20367;-76
2023/04/15 11:35:54;;;;;;;14.40;13.40;;;10.80;99.90;;;;;;2613971;54;20466;-76
2023/04/15 11:41:42;;;;;;;14.07;13.17;;;10.80;99.90;;;;;;2613746;54;20944;-76
2023/04/15 11:47:29;;;;;;;15.10;14.07;;;10.70;99.90;;;;;;2612003;54;20150;-76
2023/04/15 11:53:17;;;;;;;14.63;13.63;;;10.60;99.90;;;;;;2614275;54;20439;-76
2023/04/15 11:59:05;;;;;;;16.07;14.73;;;10.50;99.90;;;;;;2613692;54;20166;-76
2023/04/15 12:11:29;;;;;;;13.40;12.50;;;10.40;99.90;;;;;;2614364;54;20431;-76
2023/04/15 12:17:17;;;;;;;13.37;12.47;;;10.50;99.90;;;;;;2614197;54;20442;-76
2023/04/15 12:23:05;;;;;;;13.70;12.53;;;10.40;99.90;;;;;;2614102;54;20169;-73
2023/04/15 12:28:55;;;;;;;15.23;13.93;;;10.40;99.90;;;;;;2614137;54;20955;-73
2023/04/15 12:38:11;;;;;;;12.80;11.90;;;10.40;99.90;;;;;;2612932;54;20407;-74
2023/04/15 12:43:58;;;;;;;11.93;11.13;;;10.50;99.90;;;;;;2611251;54;20423;-74
2023/04/15 12:49:48;;;;;;;12.83;12.03;;;10.50;99.90;;;;;;2613983;46;20254;-74
2023/04/15 12:55:35;;;;;;;14.00;13.03;;;10.60;99.90;;;;;;2611617;54;20520;-73
2023/04/15 13:01:24;;;;;;;14.43;13.33;;;10.80;99.90;;;;;;2611722;54;20220;-75
2023/04/15 13:07:12;;;;;;;12.63;11.80;;;10.70;99.90;;;;;;2611856;54;20394;-73
2023/04/15 13:10:15;;;;;;;13.87;12.77;;;10.70;99.90;;;;;;2610759;54;20491;-73
2023/04/15 13:12:41;;;;;;;12.83;11.93;;;10.80;99.90;;;;;;2610826;54;20423;-73
2023/04/15 13:18:30;;;;;;;13.60;12.70;;;11.00;99.90;;;;;;2611492;54;20123;-76
2023/04/15 13:24:18;;;;;;;12.70;11.80;;;11.00;99.90;;;;;;2612175;39;20808;-75
2023/04/15 13:30:06;;;;;;;12.70;11.80;;;11.00;99.90;;;;;;2610975;54;20669;-73
2023/04/15 13:35:54;;;;;;;12.37;11.37;;;10.70;99.90;;;;;;2613138;54;20474;-75
2023/04/15 13:41:41;;;;;;;10.53;9.63;;;10.50;99.90;;;;;;2612954;54;20146;-75
2023/04/15 13:47:29;;;;;;;10.53;9.43;;;10.40;99.90;;;;;;2614106;54;20182;-75
2023/04/15 13:53:17;;;;;;;9.70;8.90;;;10.50;99.90;;;;;;2613392;54;20918;-75
2023/04/15 13:59:05;;;;;;;10.47;9.40;;;10.30;99.90;;;;;;2613835;54;20171;-76
2023/04/15 14:04:53;;;;;;;10.53;9.13;;;10.40;99.90;;;;;;2613584;54;20407;-76
2023/04/15 14:10:43;;;;;;;9.60;7.20;;;10.20;99.90;;;;;;2615324;54;20130;-76
2023/04/15 14:22:45;;;;;;;9.67;7.27;;;10.10;99.90;;;;;;2614509;54;20419;-77
2023/04/15 14:28:33;;;;;;;9.53;8.43;;;10.00;99.90;;;;;;2613939;54;20158;-76
2023/04/15 14:38:11;;;;;;;9.13;8.33;;;10.00;99.90;;;;;;2612834;54;20379;-76
2023/04/15 14:43:58;;;;;;;10.27;9.17;;;9.90;99.90;;;;;;2613803;54;20375;-76
2023/04/15 14:49:46;;;;;;;11.57;8.17;;;9.80;99.90;;;;;;2610162;54;20222;-75
2023/04/15 14:55:34;;;;;;;12.00;8.20;;;9.70;99.90;;;;;;2612659;54;20139;-74
2023/04/15 15:01:21;;;;;;;8.53;7.73;;;9.70;99.90;;;;;;2612478;54;20150;-78
2023/04/15 15:07:09;;;;;;;8.53;7.00;;;9.60;99.90;;;;;;2614323;54;20134;-75
2023/04/15 15:12:57;;;;;;;8.37;7.13;;;9.60;99.90;;;;;;2609530;54;20150;-75
2023/04/15 15:18:45;;;;;;;8.93;8.10;;;9.50;99.90;;;;;;2612795;54;20146;-74
2023/04/15 15:24:33;;;;;;;7.17;6.47;;;9.50;99.90;;;;;;2612792;54;20258;-74
2023/04/15 15:30:21;;;;;;;7.60;6.60;;;9.50;99.90;;;;;;2612014;54;20141;-75
2023/04/15 15:33:38;;;;;;;9.23;8.00;;;9.50;99.90;;;;;;2611358;54;20415;-75
2023/04/15 15:36:04;;;;;;;7.70;6.60;;;9.50;99.90;;;;;;2611705;54;20159;-75
2023/04/15 15:41:52;;;;;;;7.40;6.50;;;9.50;99.90;;;;;;2612333;54;20609;-76
2023/04/15 15:47:40;;;;;;;7.33;6.37;;;9.50;99.90;;;;;;2610382;54;20481;-76
2023/04/15 15:53:28;;;;;;;5.90;5.30;;;9.50;99.90;;;;;;2611392;54;20511;-75
2023/04/15 15:59:16;;;;;;;7.60;5.30;;;9.40;99.90;;;;;;2610835;54;20149;-75
2023/04/15 16:05:04;;;;;;;7.70;6.47;;;9.20;99.90;;;;;;2611302;54;20133;-76
2023/04/15 16:10:51;;;;;;;5.50;4.73;;;9.20;99.90;;;;;;2612047;54;20519;-76
2023/04/15 16:16:39;;;;;;;6.70;5.50;;;9.10;99.90;;;;;;2611406;54;20677;-76
2023/04/15 16:22:27;;;;;;;7.27;6.40;;;9.30;99.90;;;;;;2608651;54;20464;-76
2023/04/15 16:28:15;;;;;;;10.37;8.23;;;9.30;99.90;;;;;;2610240;54;20121;-76
2023/04/15 16:38:11;;;;;;;5.97;4.90;;;9.20;99.90;;;;;;2613977;54;20358;-75
2023/04/15 16:43:59;;;;;;;24.00;18.63;;;9.20;99.90;;;;;;2612237;54;20394;-74
2023/04/15 16:49:47;;;;;;;25.00;18.90;;;9.20;99.90;;;;;;2612980;54;20386;-75
2023/04/15 16:55:35;;;;;;;10.60;6.60;;;9.20;99.90;;;;;;2613770;54;20147;-76
2023/04/15 17:01:23;;;;;;;9.00;6.17;;;9.20;99.90;;;;;;2612035;54;20179;-75
2023/04/15 17:07:10;;;;;;;8.50;7.43;;;9.10;99.90;;;;;;2612241;39;20522;-75
2023/04/15 17:12:58;;;;;;;12.50;6.83;;;9.00;99.90;;;;;;2613089;54;20242;-75
2023/04/15 17:18:46;;;;;;;11.60;6.07;;;8.90;99.90;;;;;;2612745;54;20368;-74
2023/04/15 17:24:34;;;;;;;6.57;5.90;;;8.80;99.90;;;;;;2612893;54;20257;-75
2023/04/15 17:30:22;;;;;;;7.53;6.60;;;8.60;99.90;;;;;;2613693;54;20423;-74
2023/04/15 17:33:38;;;;;;;13.70;7.13;;;8.60;99.90;;;;;;2610980;54;21137;-75
2023/04/15 17:36:04;;;;;;;6.70;5.90;;;8.50;99.90;;;;;;2612070;54;20179;-75
2023/04/15 17:41:56;;;;;;;11.70;7.23;;;8.40;99.90;;;;;;2614178;39;20960;-74
2023/04/15 17:47:44;;;;;;;10.60;8.03;;;8.30;99.90;;;;;;2612461;54;20403;-74
2023/04/15 17:53:32;;;;;;;16.97;8.00;;;8.40;99.90;;;;;;2613206;54;20893;-74
2023/04/15 17:59:20;;;;;;;13.13;9.40;;;8.30;99.90;;;;;;2612746;39;20556;-73
2023/04/15 18:05:08;;;;;;;13.60;9.33;;;8.30;99.90;;;;;;2612915;54;20162;-75
2023/04/15 18:10:56;;;;;;;10.47;9.30;;;8.30;99.90;;;;;;2612649;54;20399;-75
2023/04/15 18:16:44;;;;;;;14.03;8.40;;;8.30;99.90;;;;;;2612518;54;20202;-74
2023/04/15 18:22:31;;;;;;;14.13;7.87;;;8.20;99.90;;;;;;2612740;54;20135;-75
2023/04/15 18:28:21;;;;;;;14.27;7.90;;;8.20;99.90;;;;;;2613093;54;20131;-75
2023/04/15 18:38:09;;;;;;;15.17;8.77;;;8.20;99.90;;;;;;2614474;54;20949;-74
2023/04/15 18:43:56;;;;;;;19.20;9.90;;;8.20;99.90;;;;;;2613664;54;20374;-75
2023/04/15 18:49:44;;;;;;;13.70;10.90;;;8.20;99.90;;;;;;2612629;54;20127;-75
2023/04/15 18:55:32;;;;;;;14.40;10.23;;;8.20;99.90;;;;;;2614615;54;20584;-75
2023/04/15 19:01:19;;;;;;;13.20;9.30;;;8.20;99.90;;;;;;2614433;54;20200;-75
2023/04/15 19:07:08;;;;;;;16.97;11.30;;;8.20;99.90;;;;;;2614658;54;20629;-75
2023/04/15 19:12:56;;;;;;;15.60;11.13;;;8.20;99.90;;;;;;2611989;54;20467;-75
2023/04/15 19:18:44;;;;;;;10.60;7.50;;;8.10;99.90;;;;;;2613434;54;20115;-74
2023/04/15 19:24:32;;;;;;;10.07;7.97;;;8.20;99.90;;;;;;2611400;54;20135;-79
2023/04/15 19:30:20;;;;;;;10.83;8.63;;;8.10;99.90;;;;;;2613963;54;20373;-78
2023/04/15 19:33:38;;;;;;;11.07;9.30;;;8.10;99.90;;;;;;2613291;54;20395;-77
2023/04/15 19:36:05;;;;;;;17.17;12.90;;;8.10;99.90;;;;;;2614065;54;20419;-79
2023/04/15 19:41:53;;;;;;;18.53;15.40;;;8.20;99.90;;;;;;2614499;54;20408;-78
2023/04/15 19:47:41;;;;;;;13.80;11.63;;;8.10;99.90;;;;;;2613784;54;20391;-79
2023/04/15 19:53:29;;;;;;;14.83;9.40;;;8.10;99.90;;;;;;2613285;54;20134;-78
2023/04/15 19:59:17;;;;;;;14.23;9.30;;;8.10;99.90;;;;;;2613208;54;20123;-78
2023/04/15 20:05:08;;;;;;;18.53;10.60;;;8.10;99.90;;;;;;2612893;54;20277;-77
2023/04/15 20:10:56;;;;;;;17.90;11.40;;;8.10;99.90;;;;;;2613445;46;20544;-78
2023/04/15 20:16:44;;;;;;;23.80;14.17;;;8.00;99.90;;;;;;2612628;54;20243;-78
2023/04/15 20:22:32;;;;;;;20.60;15.83;;;8.00;99.90;;;;;;2610876;54;20266;-77
2023/04/15 20:28:20;;;;;;;30.47;15.63;;;8.00;99.90;;;;;;2609479;54;20367;-78
2023/04/15 20:38:11;;;;;;;23.37;16.17;;;8.00;99.90;;;;;;2610093;54;20390;-78
2023/04/15 20:43:59;;;;;;;27.60;18.37;;;8.00;99.90;;;;;;2610932;54;20394;-77
2023/04/15 20:49:47;;;;;;;28.27;21.70;;;8.00;99.90;;;;;;2611044;54;20126;-79
2023/04/15 20:55:35;;;;;;;27.40;18.37;;;8.10;99.90;;;;;;2608887;54;20153;-78
2023/04/15 21:01:22;;;;;;;29.53;16.80;;;8.10;99.90;;;;;;2602676;39;21436;-76
2023/04/15 21:07:10;;;;;;;25.50;16.03;;;8.10;99.90;;;;;;2605711;54;20178;-75
2023/04/15 21:12:58;;;;;;;18.07;12.97;;;8.10;99.90;;;;;;2609094;54;20157;-75
2023/04/15 21:18:46;;;;;;;26.33;15.47;;;8.10;99.90;;;;;;2610241;54;20157;-74
2023/04/15 21:24:33;;;;;;;21.30;15.80;;;8.10;99.90;;;;;;2609626;54;20127;-75
2023/04/15 21:30:22;;;;;;;31.13;17.90;;;8.10;99.90;;;;;;2609270;54;21197;-73
2023/04/15 21:33:38;;;;;;;28.70;16.03;;;8.10;99.90;;;;;;2610011;54;20404;-75
2023/04/15 21:36:04;;;;;;;23.83;15.00;;;8.10;99.90;;;;;;2610252;54;20404;-75
2023/04/15 21:41:52;;;;;;;26.57;13.90;;;8.10;99.90;;;;;;2610646;54;20134;-74
2023/04/15 21:47:39;;;;;;;20.17;14.90;;;8.10;99.90;;;;;;2609682;54;20649;-75
2023/04/15 21:53:27;;;;;;;23.30;15.37;;;8.10;99.90;;;;;;2608946;54;20130;-75
2023/04/15 21:59:15;;;;;;;20.87;13.87;;;8.20;99.90;;;;;;2610048;46;20150;-75
2023/04/15 22:05:04;;;;;;;29.80;17.80;;;8.20;99.90;;;;;;2610402;54;20154;-75
2023/04/15 22:10:51;;;;;;;33.57;19.27;;;8.20;99.90;;;;;;2611571;54;20391;-75
2023/04/15 22:16:39;;;;;;;32.37;20.20;;;8.20;99.90;;;;;;2611591;54;20162;-75
2023/04/15 22:22:26;;;;;;;35.03;21.60;;;8.10;99.90;;;;;;2610452;54;20154;-74
2023/04/15 22:28:14;;;;;;;30.10;19.00;;;8.10;99.90;;;;;;2612895;54;20150;-75
2023/04/15 22:38:11;;;;;;;31.33;19.23;;;8.10;99.90;;;;;;2609323;54;20395;-75
2023/04/15 22:43:58;;;;;;;39.13;25.47;;;8.10;99.90;;;;;;2611740;54;21388;-75
2023/04/15 22:49:46;;;;;;;36.27;21.63;;;8.10;99.90;;;;;;2611673;31;20624;-75
2023/04/15 22:55:34;;;;;;;32.47;23.10;;;8.20;99.90;;;;;;2609884;54;20147;-74
2023/04/15 23:01:21;;;;;;;38.90;22.83;;;8.10;99.90;;;;;;2611774;54;20138;-75
2023/04/15 23:07:09;;;;;;;36.87;20.57;;;8.00;99.90;;;;;;2610663;54;20680;-73
2023/04/15 23:12:57;;;;;;;35.87;20.73;;;8.00;99.90;;;;;;2610332;54;21199;-75
2023/04/15 23:18:45;;;;;;;40.73;22.40;;;8.00;99.90;;;;;;2609649;54;20138;-75
2023/04/15 23:24:33;;;;;;;35.10;21.40;;;8.00;99.90;;;;;;2611294;54;20684;-74
2023/04/15 23:30:21;;;;;;;34.73;22.33;;;7.90;99.90;;;;;;2610179;54;20161;-69
2023/04/15 23:33:38;;;;;;;40.47;23.13;;;8.00;99.90;;;;;;2610339;54;20522;-69
2023/04/15 23:36:05;;;;;;;31.73;21.23;;;8.00;99.90;;;;;;2609929;47;20442;-68
2023/04/15 23:41:53;;;;;;;42.43;23.60;;;8.00;99.90;;;;;;2610448;54;20400;-68
2023/04/15 23:47:41;;;;;;;34.47;22.33;;;8.00;99.90;;;;;;2609994;54;20151;-69
2023/04/15 23:53:28;;;;;;;38.40;24.40;;;8.00;99.90;;;;;;2610034;54;20159;-68
2023/04/15 23:59:16;;;;;;;40.13;24.37;;;8.00;99.90;;;;;;2609831;54;20123;-68
